sensor_id;sensor_type;location;lat;lon;timestamp;P1;durP1;ratioP1;P2;durP2;ratioP2
45318;SDS011;31057;48.498;32.260;2022-10-31T00:01:41;13.45;;;9.38;;
45318;SDS011;31057;48.498;32.260;2022-10-31T00:03:43;14.32;;;9.70;;
45318;SDS011;31057;48.498;32.260;2022-10-31T00:05:47;15.52;;;8.93;;
45318;SDS011;31057;48.498;32.260;2022-10-31T00:07:53;12.20;;;8.00;;
45318;SDS011;31057;48.498;32.260;2022-10-31T00:09:55;13.07;;;7.85;;
45318;SDS011;31057;48.498;32.260;2022-10-31T00:11:57;16.42;;;9.45;;
45318;SDS011;31057;48.498;32.260;2022-10-31T00:13:59;12.00;;;9.02;;
45318;SDS011;31057;48.498;32.260;2022-10-31T00:16:01;13.00;;;9.05;;
45318;SDS011;31057;48.498;32.260;2022-10-31T00:20:06;15.27;;;9.57;;
45318;SDS011;31057;48.498;32.260;2022-10-31T00:22:08;16.88;;;11.38;;
45318;SDS011;31057;48.498;32.260;2022-10-31T00:24:10;16.63;;;9.48;;
45318;SDS011;31057;48.498;32.260;2022-10-31T00:28:14;14.53;;;9.40;;
45318;SDS011;31057;48.498;32.260;2022-10-31T00:30:16;12.23;;;9.48;;
45318;SDS011;31057;48.498;32.260;2022-10-31T00:32:17;14.13;;;10.10;;
45318;SDS011;31057;48.498;32.260;2022-10-31T00:34:19;18.33;;;11.00;;
45318;SDS011;31057;48.498;32.260;2022-10-31T00:36:21;16.27;;;10.63;;
45318;SDS011;31057;48.498;32.260;2022-10-31T00:38:23;14.52;;;10.73;;
45318;SDS011;31057;48.498;32.260;2022-10-31T00:40:25;16.52;;;10.85;;
45318;SDS011;31057;48.498;32.260;2022-10-31T00:42:27;19.35;;;11.98;;
45318;SDS011;31057;48.498;32.260;2022-10-31T00:44:30;17.70;;;12.60;;
45318;SDS011;31057;48.498;32.260;2022-10-31T00:46:31;18.20;;;11.40;;
45318;SDS011;31057;48.498;32.260;2022-10-31T00:48:33;14.77;;;10.52;;
45318;SDS011;31057;48.498;32.260;2022-10-31T00:50:35;15.15;;;11.40;;
45318;SDS011;31057;48.498;32.260;2022-10-31T00:52:38;17.20;;;12.50;;
45318;SDS011;31057;48.498;32.260;2022-10-31T00:54:39;13.68;;;11.70;;
45318;SDS011;31057;48.498;32.260;2022-10-31T00:56:41;14.50;;;11.20;;
45318;SDS011;31057;48.498;32.260;2022-10-31T00:58:43;19.70;;;11.73;;
45318;SDS011;31057;48.498;32.260;2022-10-31T01:00:46;18.05;;;13.00;;
45318;SDS011;31057;48.498;32.260;2022-10-31T01:02:56;15.93;;;10.80;;
45318;SDS011;31057;48.498;32.260;2022-10-31T01:04:58;16.58;;;11.05;;
45318;SDS011;31057;48.498;32.260;2022-10-31T01:07:00;19.15;;;12.40;;
45318;SDS011;31057;48.498;32.260;2022-10-31T01:09:02;16.25;;;12.10;;
45318;SDS011;31057;48.498;32.260;2022-10-31T01:11:14;20.10;;;11.60;;
45318;SDS011;31057;48.498;32.260;2022-10-31T01:13:21;20.55;;;12.68;;
45318;SDS011;31057;48.498;32.260;2022-10-31T01:15:23;17.55;;;13.35;;
45318;SDS011;31057;48.498;32.260;2022-10-31T01:17:25;18.98;;;13.10;;
45318;SDS011;31057;48.498;32.260;2022-10-31T01:19:27;19.55;;;11.40;;
45318;SDS011;31057;48.498;32.260;2022-10-31T01:21:29;13.82;;;10.70;;
45318;SDS011;31057;48.498;32.260;2022-10-31T01:23:31;20.70;;;11.73;;
45318;SDS011;31057;48.498;32.260;2022-10-31T01:25:34;15.25;;;11.63;;
45318;SDS011;31057;48.498;32.260;2022-10-31T01:27:36;18.58;;;12.07;;
45318;SDS011;31057;48.498;32.260;2022-10-31T01:29:38;14.93;;;11.05;;
45318;SDS011;31057;48.498;32.260;2022-10-31T01:31:39;13.30;;;10.32;;
45318;SDS011;31057;48.498;32.260;2022-10-31T01:33:41;15.85;;;10.77;;
45318;SDS011;31057;48.498;32.260;2022-10-31T01:35:43;13.68;;;10.48;;
45318;SDS011;31057;48.498;32.260;2022-10-31T01:37:45;13.75;;;10.43;;
45318;SDS011;31057;48.498;32.260;2022-10-31T01:39:50;14.30;;;10.80;;
45318;SDS011;31057;48.498;32.260;2022-10-31T01:41:52;18.02;;;12.68;;
45318;SDS011;31057;48.498;32.260;2022-10-31T01:46:00;19.92;;;14.02;;
45318;SDS011;31057;48.498;32.260;2022-10-31T01:50:06;20.57;;;12.83;;
45318;SDS011;31057;48.498;32.260;2022-10-31T01:52:20;15.27;;;12.57;;
45318;SDS011;31057;48.498;32.260;2022-10-31T01:54:24;19.67;;;14.80;;
45318;SDS011;31057;48.498;32.260;2022-10-31T01:56:31;23.33;;;15.65;;
45318;SDS011;31057;48.498;32.260;2022-10-31T01:58:35;25.63;;;22.60;;
45318;SDS011;31057;48.498;32.260;2022-10-31T02:00:38;25.38;;;22.60;;
45318;SDS011;31057;48.498;32.260;2022-10-31T02:02:42;24.13;;;21.63;;
45318;SDS011;31057;48.498;32.260;2022-10-31T02:04:46;32.65;;;22.08;;
45318;SDS011;31057;48.498;32.260;2022-10-31T02:07:00;25.27;;;22.65;;
45318;SDS011;31057;48.498;32.260;2022-10-31T02:09:06;23.23;;;20.65;;
45318;SDS011;31057;48.498;32.260;2022-10-31T02:11:08;20.00;;;14.48;;
45318;SDS011;31057;48.498;32.260;2022-10-31T02:13:11;14.50;;;11.00;;
45318;SDS011;31057;48.498;32.260;2022-10-31T02:15:14;13.18;;;10.88;;
45318;SDS011;31057;48.498;32.260;2022-10-31T02:17:16;15.65;;;12.00;;
45318;SDS011;31057;48.498;32.260;2022-10-31T02:19:21;19.08;;;13.68;;
45318;SDS011;31057;48.498;32.260;2022-10-31T02:21:44;22.70;;;16.98;;
45318;SDS011;31057;48.498;32.260;2022-10-31T02:29:48;21.38;;;17.70;;
45318;SDS011;31057;48.498;32.260;2022-10-31T02:31:40;29.25;;;25.58;;
45318;SDS011;31057;48.498;32.260;2022-10-31T02:33:58;35.45;;;32.05;;
45318;SDS011;31057;48.498;32.260;2022-10-31T02:36:16;32.15;;;28.73;;
45318;SDS011;31057;48.498;32.260;2022-10-31T02:38:29;51.85;;;47.03;;
45318;SDS011;31057;48.498;32.260;2022-10-31T02:40:52;32.92;;;29.67;;
45318;SDS011;31057;48.498;32.260;2022-10-31T02:45:44;50.45;;;45.30;;
45318;SDS011;31057;48.498;32.260;2022-10-31T02:47:55;45.83;;;41.22;;
45318;SDS011;31057;48.498;32.260;2022-10-31T02:50:11;42.38;;;37.97;;
45318;SDS011;31057;48.498;32.260;2022-10-31T02:52:20;45.67;;;40.72;;
45318;SDS011;31057;48.498;32.260;2022-10-31T02:54:25;35.17;;;31.67;;
45318;SDS011;31057;48.498;32.260;2022-10-31T02:56:29;50.13;;;45.15;;
45318;SDS011;31057;48.498;32.260;2022-10-31T02:58:33;43.47;;;39.03;;
45318;SDS011;31057;48.498;32.260;2022-10-31T03:00:44;50.83;;;44.97;;
45318;SDS011;31057;48.498;32.260;2022-10-31T03:08:03;48.50;;;43.65;;
45318;SDS011;31057;48.498;32.260;2022-10-31T03:10:20;40.13;;;36.45;;
45318;SDS011;31057;48.498;32.260;2022-10-31T03:14:41;22.92;;;18.98;;
45318;SDS011;31057;48.498;32.260;2022-10-31T03:16:52;22.45;;;20.10;;
45318;SDS011;31057;48.498;32.260;2022-10-31T03:19:00;22.10;;;12.60;;
45318;SDS011;31057;48.498;32.260;2022-10-31T03:21:06;15.82;;;13.18;;
45318;SDS011;31057;48.498;32.260;2022-10-31T03:23:14;26.50;;;17.92;;
45318;SDS011;31057;48.498;32.260;2022-10-31T03:25:18;18.05;;;14.20;;
45318;SDS011;31057;48.498;32.260;2022-10-31T03:27:22;23.33;;;15.10;;
45318;SDS011;31057;48.498;32.260;2022-10-31T03:29:27;40.92;;;23.45;;
45318;SDS011;31057;48.498;32.260;2022-10-31T03:31:33;24.45;;;18.48;;
45318;SDS011;31057;48.498;32.260;2022-10-31T03:33:40;19.05;;;16.85;;
45318;SDS011;31057;48.498;32.260;2022-10-31T03:35:45;22.33;;;19.05;;
45318;SDS011;31057;48.498;32.260;2022-10-31T03:37:51;23.95;;;19.05;;
45318;SDS011;31057;48.498;32.260;2022-10-31T03:39:55;42.33;;;38.10;;
45318;SDS011;31057;48.498;32.260;2022-10-31T03:42:00;39.00;;;34.88;;
45318;SDS011;31057;48.498;32.260;2022-10-31T03:44:14;41.53;;;37.13;;
45318;SDS011;31057;48.498;32.260;2022-10-31T03:46:20;44.20;;;40.22;;
45318;SDS011;31057;48.498;32.260;2022-10-31T03:48:22;37.95;;;34.15;;
45318;SDS011;31057;48.498;32.260;2022-10-31T03:50:27;47.00;;;40.42;;
45318;SDS011;31057;48.498;32.260;2022-10-31T03:53:26;43.45;;;38.95;;
45318;SDS011;31057;48.498;32.260;2022-10-31T03:57:27;36.30;;;32.50;;
45318;SDS011;31057;48.498;32.260;2022-10-31T03:59:40;35.50;;;27.85;;
45318;SDS011;31057;48.498;32.260;2022-10-31T04:01:46;24.67;;;21.67;;
45318;SDS011;31057;48.498;32.260;2022-10-31T04:03:52;19.13;;;14.90;;
45318;SDS011;31057;48.498;32.260;2022-10-31T04:05:56;12.45;;;8.48;;
45318;SDS011;31057;48.498;32.260;2022-10-31T04:08:03;11.10;;;6.90;;
45318;SDS011;31057;48.498;32.260;2022-10-31T04:10:09;9.38;;;5.65;;
45318;SDS011;31057;48.498;32.260;2022-10-31T04:12:14;11.50;;;6.32;;
45318;SDS011;31057;48.498;32.260;2022-10-31T04:14:17;7.55;;;5.22;;
45318;SDS011;31057;48.498;32.260;2022-10-31T04:16:19;8.48;;;5.53;;
45318;SDS011;31057;48.498;32.260;2022-10-31T04:18:23;11.48;;;5.60;;
45318;SDS011;31057;48.498;32.260;2022-10-31T04:22:34;7.10;;;4.65;;
45318;SDS011;31057;48.498;32.260;2022-10-31T04:24:37;9.68;;;5.25;;
45318;SDS011;31057;48.498;32.260;2022-10-31T04:26:41;10.18;;;4.80;;
45318;SDS011;31057;48.498;32.260;2022-10-31T04:28:43;12.23;;;5.57;;
45318;SDS011;31057;48.498;32.260;2022-10-31T04:30:45;9.48;;;4.57;;
45318;SDS011;31057;48.498;32.260;2022-10-31T04:32:47;11.93;;;4.03;;
45318;SDS011;31057;48.498;32.260;2022-10-31T04:34:49;12.13;;;4.28;;
45318;SDS011;31057;48.498;32.260;2022-10-31T04:36:50;11.70;;;5.68;;
45318;SDS011;31057;48.498;32.260;2022-10-31T04:38:52;9.25;;;5.35;;
45318;SDS011;31057;48.498;32.260;2022-10-31T04:40:54;10.35;;;5.40;;
45318;SDS011;31057;48.498;32.260;2022-10-31T04:42:56;12.25;;;5.53;;
45318;SDS011;31057;48.498;32.260;2022-10-31T04:44:58;7.65;;;5.47;;
45318;SDS011;31057;48.498;32.260;2022-10-31T04:47:00;7.50;;;3.97;;
45318;SDS011;31057;48.498;32.260;2022-10-31T04:49:02;10.73;;;5.35;;
45318;SDS011;31057;48.498;32.260;2022-10-31T04:51:04;7.43;;;4.47;;
45318;SDS011;31057;48.498;32.260;2022-10-31T04:53:06;14.30;;;5.40;;
45318;SDS011;31057;48.498;32.260;2022-10-31T04:55:08;8.55;;;4.60;;
45318;SDS011;31057;48.498;32.260;2022-10-31T04:57:11;13.10;;;4.93;;
45318;SDS011;31057;48.498;32.260;2022-10-31T04:59:13;11.32;;;4.75;;
45318;SDS011;31057;48.498;32.260;2022-10-31T05:01:15;9.02;;;5.55;;
45318;SDS011;31057;48.498;32.260;2022-10-31T05:03:17;11.98;;;4.38;;
45318;SDS011;31057;48.498;32.260;2022-10-31T05:05:20;10.75;;;5.22;;
45318;SDS011;31057;48.498;32.260;2022-10-31T05:07:23;9.50;;;4.50;;
45318;SDS011;31057;48.498;32.260;2022-10-31T05:09:25;9.98;;;4.28;;
45318;SDS011;31057;48.498;32.260;2022-10-31T05:11:27;9.32;;;4.90;;
45318;SDS011;31057;48.498;32.260;2022-10-31T05:13:29;11.82;;;4.32;;
45318;SDS011;31057;48.498;32.260;2022-10-31T05:15:33;11.95;;;5.07;;
45318;SDS011;31057;48.498;32.260;2022-10-31T05:19:37;8.80;;;4.70;;
45318;SDS011;31057;48.498;32.260;2022-10-31T05:21:38;9.57;;;5.47;;
45318;SDS011;31057;48.498;32.260;2022-10-31T05:23:40;8.93;;;5.05;;
45318;SDS011;31057;48.498;32.260;2022-10-31T05:25:48;12.18;;;5.05;;
45318;SDS011;31057;48.498;32.260;2022-10-31T05:27:51;7.80;;;4.05;;
45318;SDS011;31057;48.498;32.260;2022-10-31T05:29:53;11.38;;;4.78;;
45318;SDS011;31057;48.498;32.260;2022-10-31T05:31:55;7.57;;;4.30;;
45318;SDS011;31057;48.498;32.260;2022-10-31T05:33:57;6.65;;;4.07;;
45318;SDS011;31057;48.498;32.260;2022-10-31T05:38:00;8.37;;;4.17;;
45318;SDS011;31057;48.498;32.260;2022-10-31T05:40:03;8.43;;;4.15;;
45318;SDS011;31057;48.498;32.260;2022-10-31T05:42:08;10.93;;;4.25;;
45318;SDS011;31057;48.498;32.260;2022-10-31T05:44:10;10.05;;;3.95;;
45318;SDS011;31057;48.498;32.260;2022-10-31T05:46:12;12.68;;;3.78;;
45318;SDS011;31057;48.498;32.260;2022-10-31T05:48:14;7.18;;;3.83;;
45318;SDS011;31057;48.498;32.260;2022-10-31T05:50:16;6.68;;;3.22;;
45318;SDS011;31057;48.498;32.260;2022-10-31T05:52:19;11.65;;;3.65;;
45318;SDS011;31057;48.498;32.260;2022-10-31T05:54:21;8.00;;;3.65;;
45318;SDS011;31057;48.498;32.260;2022-10-31T05:56:23;7.68;;;4.07;;
45318;SDS011;31057;48.498;32.260;2022-10-31T05:58:25;10.70;;;3.97;;
45318;SDS011;31057;48.498;32.260;2022-10-31T06:00:27;12.13;;;3.67;;
45318;SDS011;31057;48.498;32.260;2022-10-31T06:02:30;10.55;;;4.10;;
45318;SDS011;31057;48.498;32.260;2022-10-31T06:04:35;9.07;;;3.67;;
45318;SDS011;31057;48.498;32.260;2022-10-31T06:08:39;8.00;;;3.63;;
45318;SDS011;31057;48.498;32.260;2022-10-31T06:10:41;6.22;;;3.50;;
45318;SDS011;31057;48.498;32.260;2022-10-31T06:12:43;8.48;;;3.50;;
45318;SDS011;31057;48.498;32.260;2022-10-31T06:14:45;10.02;;;4.65;;
45318;SDS011;31057;48.498;32.260;2022-10-31T06:16:47;7.75;;;3.88;;
45318;SDS011;31057;48.498;32.260;2022-10-31T06:18:49;12.70;;;4.30;;
45318;SDS011;31057;48.498;32.260;2022-10-31T06:22:53;6.93;;;3.77;;
45318;SDS011;31057;48.498;32.260;2022-10-31T06:26:57;8.40;;;5.97;;
45318;SDS011;31057;48.498;32.260;2022-10-31T06:28:58;11.88;;;5.10;;
45318;SDS011;31057;48.498;32.260;2022-10-31T06:31:04;9.98;;;4.63;;
45318;SDS011;31057;48.498;32.260;2022-10-31T06:33:06;10.70;;;5.38;;
45318;SDS011;31057;48.498;32.260;2022-10-31T06:35:08;12.40;;;9.43;;
45318;SDS011;31057;48.498;32.260;2022-10-31T06:39:13;12.25;;;4.68;;
45318;SDS011;31057;48.498;32.260;2022-10-31T06:41:15;8.18;;;4.03;;
45318;SDS011;31057;48.498;32.260;2022-10-31T06:45:19;9.02;;;4.63;;
45318;SDS011;31057;48.498;32.260;2022-10-31T06:47:23;11.10;;;5.00;;
45318;SDS011;31057;48.498;32.260;2022-10-31T06:49:25;7.57;;;4.00;;
45318;SDS011;31057;48.498;32.260;2022-10-31T06:51:27;7.43;;;3.63;;
45318;SDS011;31057;48.498;32.260;2022-10-31T06:53:29;7.22;;;4.28;;
45318;SDS011;31057;48.498;32.260;2022-10-31T06:55:31;9.38;;;4.90;;
45318;SDS011;31057;48.498;32.260;2022-10-31T06:57:33;7.43;;;4.47;;
45318;SDS011;31057;48.498;32.260;2022-10-31T06:59:35;12.60;;;4.90;;
45318;SDS011;31057;48.498;32.260;2022-10-31T07:01:37;7.55;;;5.07;;
45318;SDS011;31057;48.498;32.260;2022-10-31T07:03:39;8.85;;;5.07;;
45318;SDS011;31057;48.498;32.260;2022-10-31T07:05:41;12.80;;;5.47;;
45318;SDS011;31057;48.498;32.260;2022-10-31T07:07:43;7.55;;;4.80;;
45318;SDS011;31057;48.498;32.260;2022-10-31T07:09:45;7.38;;;3.60;;
45318;SDS011;31057;48.498;32.260;2022-10-31T07:11:47;8.27;;;4.35;;
45318;SDS011;31057;48.498;32.260;2022-10-31T07:13:49;6.10;;;4.55;;
45318;SDS011;31057;48.498;32.260;2022-10-31T07:15:51;6.47;;;4.65;;
45318;SDS011;31057;48.498;32.260;2022-10-31T07:17:59;5.72;;;3.90;;
45318;SDS011;31057;48.498;32.260;2022-10-31T07:20:04;7.10;;;3.80;;
45318;SDS011;31057;48.498;32.260;2022-10-31T07:22:07;7.55;;;4.05;;
45318;SDS011;31057;48.498;32.260;2022-10-31T07:24:09;6.60;;;3.92;;
45318;SDS011;31057;48.498;32.260;2022-10-31T07:26:10;11.05;;;4.78;;
45318;SDS011;31057;48.498;32.260;2022-10-31T07:28:12;6.68;;;4.28;;
45318;SDS011;31057;48.498;32.260;2022-10-31T07:30:15;5.78;;;3.88;;
45318;SDS011;31057;48.498;32.260;2022-10-31T07:32:19;5.35;;;4.10;;
45318;SDS011;31057;48.498;32.260;2022-10-31T07:34:21;5.28;;;3.72;;
45318;SDS011;31057;48.498;32.260;2022-10-31T07:36:23;8.90;;;4.70;;
45318;SDS011;31057;48.498;32.260;2022-10-31T07:38:25;5.53;;;3.83;;
45318;SDS011;31057;48.498;32.260;2022-10-31T07:40:26;6.22;;;4.57;;
45318;SDS011;31057;48.498;32.260;2022-10-31T07:42:28;7.22;;;3.83;;
45318;SDS011;31057;48.498;32.260;2022-10-31T07:44:33;5.63;;;4.07;;
45318;SDS011;31057;48.498;32.260;2022-10-31T07:46:35;13.73;;;4.00;;
45318;SDS011;31057;48.498;32.260;2022-10-31T07:48:37;5.72;;;4.15;;
45318;SDS011;31057;48.498;32.260;2022-10-31T07:50:39;5.93;;;3.97;;
45318;SDS011;31057;48.498;32.260;2022-10-31T07:54:42;7.40;;;3.70;;
45318;SDS011;31057;48.498;32.260;2022-10-31T07:56:44;6.90;;;3.58;;
45318;SDS011;31057;48.498;32.260;2022-10-31T07:58:48;7.18;;;3.80;;
45318;SDS011;31057;48.498;32.260;2022-10-31T08:00:50;9.95;;;4.40;;
45318;SDS011;31057;48.498;32.260;2022-10-31T08:03:06;7.65;;;4.30;;
45318;SDS011;31057;48.498;32.260;2022-10-31T08:05:12;10.18;;;5.07;;
45318;SDS011;31057;48.498;32.260;2022-10-31T08:07:14;8.90;;;4.38;;
45318;SDS011;31057;48.498;32.260;2022-10-31T08:09:16;6.20;;;3.90;;
45318;SDS011;31057;48.498;32.260;2022-10-31T08:11:18;7.05;;;3.55;;
45318;SDS011;31057;48.498;32.260;2022-10-31T08:13:20;5.72;;;3.10;;
45318;SDS011;31057;48.498;32.260;2022-10-31T08:15:23;5.65;;;2.95;;
45318;SDS011;31057;48.498;32.260;2022-10-31T08:17:25;5.25;;;2.55;;
45318;SDS011;31057;48.498;32.260;2022-10-31T08:19:27;5.93;;;2.55;;
45318;SDS011;31057;48.498;32.260;2022-10-31T08:21:29;4.95;;;1.73;;
45318;SDS011;31057;48.498;32.260;2022-10-31T08:23:32;7.88;;;1.08;;
45318;SDS011;31057;48.498;32.260;2022-10-31T08:25:34;2.67;;;1.30;;
45318;SDS011;31057;48.498;32.260;2022-10-31T08:27:39;12.32;;;1.63;;
45318;SDS011;31057;48.498;32.260;2022-10-31T08:29:40;2.47;;;1.00;;
45318;SDS011;31057;48.498;32.260;2022-10-31T08:31:42;5.78;;;1.55;;
45318;SDS011;31057;48.498;32.260;2022-10-31T08:35:46;3.30;;;1.13;;
45318;SDS011;31057;48.498;32.260;2022-10-31T08:37:52;4.13;;;1.23;;
45318;SDS011;31057;48.498;32.260;2022-10-31T08:39:57;4.18;;;1.15;;
45318;SDS011;31057;48.498;32.260;2022-10-31T08:41:59;3.90;;;1.13;;
45318;SDS011;31057;48.498;32.260;2022-10-31T08:44:01;7.90;;;1.48;;
45318;SDS011;31057;48.498;32.260;2022-10-31T08:46:03;0.73;;;0.70;;
45318;SDS011;31057;48.498;32.260;2022-10-31T08:48:09;2.97;;;1.15;;
45318;SDS011;31057;48.498;32.260;2022-10-31T08:50:13;1.77;;;1.00;;
45318;SDS011;31057;48.498;32.260;2022-10-31T08:52:15;3.65;;;1.20;;
45318;SDS011;31057;48.498;32.260;2022-10-31T08:54:17;2.53;;;1.20;;
45318;SDS011;31057;48.498;32.260;2022-10-31T08:56:19;7.65;;;1.65;;
45318;SDS011;31057;48.498;32.260;2022-10-31T08:58:21;3.67;;;1.02;;
45318;SDS011;31057;48.498;32.260;2022-10-31T09:00:23;6.75;;;1.20;;
45318;SDS011;31057;48.498;32.260;2022-10-31T09:04:27;2.53;;;1.10;;
45318;SDS011;31057;48.498;32.260;2022-10-31T09:06:29;3.72;;;1.00;;
45318;SDS011;31057;48.498;32.260;2022-10-31T09:08:31;3.83;;;1.25;;
45318;SDS011;31057;48.498;32.260;2022-10-31T09:10:35;3.42;;;1.00;;
45318;SDS011;31057;48.498;32.260;2022-10-31T09:12:37;1.23;;;0.85;;
45318;SDS011;31057;48.498;32.260;2022-10-31T09:14:39;1.10;;;1.00;;
45318;SDS011;31057;48.498;32.260;2022-10-31T09:16:41;1.83;;;1.10;;
45318;SDS011;31057;48.498;32.260;2022-10-31T09:18:43;6.22;;;1.30;;
45318;SDS011;31057;48.498;32.260;2022-10-31T09:20:45;1.52;;;1.08;;
45318;SDS011;31057;48.498;32.260;2022-10-31T09:22:54;1.88;;;1.00;;
45318;SDS011;31057;48.498;32.260;2022-10-31T09:24:57;2.22;;;1.20;;
45318;SDS011;31057;48.498;32.260;2022-10-31T09:26:59;1.98;;;1.00;;
45318;SDS011;31057;48.498;32.260;2022-10-31T09:29:01;2.08;;;1.08;;
45318;SDS011;31057;48.498;32.260;2022-10-31T09:31:03;4.90;;;1.00;;
45318;SDS011;31057;48.498;32.260;2022-10-31T09:33:06;3.80;;;1.00;;
45318;SDS011;31057;48.498;32.260;2022-10-31T09:35:11;2.42;;;1.10;;
45318;SDS011;31057;48.498;32.260;2022-10-31T09:37:18;3.67;;;1.00;;
45318;SDS011;31057;48.498;32.260;2022-10-31T09:41:24;1.52;;;1.00;;
45318;SDS011;31057;48.498;32.260;2022-10-31T09:50:24;5.82;;;1.63;;
45318;SDS011;31057;48.498;32.260;2022-10-31T09:52:32;3.80;;;1.13;;
45318;SDS011;31057;48.498;32.260;2022-10-31T09:54:40;5.97;;;1.92;;
45318;SDS011;31057;48.498;32.260;2022-10-31T09:56:49;4.00;;;1.57;;
45318;SDS011;31057;48.498;32.260;2022-10-31T09:58:52;3.92;;;1.20;;
45318;SDS011;31057;48.498;32.260;2022-10-31T10:00:58;1.73;;;1.00;;
45318;SDS011;31057;48.498;32.260;2022-10-31T10:03:07;5.15;;;1.30;;
45318;SDS011;31057;48.498;32.260;2022-10-31T10:05:46;4.15;;;0.90;;
45318;SDS011;31057;48.498;32.260;2022-10-31T10:08:18;2.97;;;1.00;;
45318;SDS011;31057;48.498;32.260;2022-10-31T10:31:27;1.15;;;0.90;;
45318;SDS011;31057;48.498;32.260;2022-10-31T10:33:39;2.13;;;1.00;;
45318;SDS011;31057;48.498;32.260;2022-10-31T10:35:49;3.17;;;1.30;;
45318;SDS011;31057;48.498;32.260;2022-10-31T10:37:58;0.95;;;0.80;;
45318;SDS011;31057;48.498;32.260;2022-10-31T10:40:17;2.17;;;0.80;;
45318;SDS011;31057;48.498;32.260;2022-10-31T10:42:23;2.90;;;0.90;;
45318;SDS011;31057;48.498;32.260;2022-10-31T10:44:47;2.53;;;0.90;;
45318;SDS011;31057;48.498;32.260;2022-10-31T10:47:09;1.20;;;1.00;;
45318;SDS011;31057;48.498;32.260;2022-10-31T10:51:54;0.90;;;0.70;;
45318;SDS011;31057;48.498;32.260;2022-10-31T10:59:10;3.42;;;1.45;;
45318;SDS011;31057;48.498;32.260;2022-10-31T11:01:14;1.58;;;1.08;;
45318;SDS011;31057;48.498;32.260;2022-10-31T11:03:17;2.50;;;1.20;;
45318;SDS011;31057;48.498;32.260;2022-10-31T11:05:22;3.65;;;1.23;;
45318;SDS011;31057;48.498;32.260;2022-10-31T11:07:37;2.53;;;1.10;;
45318;SDS011;31057;48.498;32.260;2022-10-31T11:09:40;2.50;;;1.60;;
45318;SDS011;31057;48.498;32.260;2022-10-31T11:11:42;2.17;;;1.23;;
45318;SDS011;31057;48.498;32.260;2022-10-31T11:13:45;4.22;;;1.02;;
45318;SDS011;31057;48.498;32.260;2022-10-31T11:16:06;1.52;;;0.93;;
45318;SDS011;31057;48.498;32.260;2022-10-31T11:18:19;6.97;;;1.50;;
45318;SDS011;31057;48.498;32.260;2022-10-31T11:20:29;7.07;;;1.30;;
45318;SDS011;31057;48.498;32.260;2022-10-31T11:22:35;4.35;;;1.48;;
45318;SDS011;31057;48.498;32.260;2022-10-31T11:24:38;0.75;;;0.70;;
45318;SDS011;31057;48.498;32.260;2022-10-31T11:26:42;5.20;;;1.10;;
45318;SDS011;31057;48.498;32.260;2022-10-31T11:28:55;2.97;;;0.80;;
45318;SDS011;31057;48.498;32.260;2022-10-31T11:31:00;3.72;;;0.80;;
45318;SDS011;31057;48.498;32.260;2022-10-31T11:33:11;1.25;;;0.77;;
45318;SDS011;31057;48.498;32.260;2022-10-31T11:35:38;1.30;;;0.60;;
45318;SDS011;31057;48.498;32.260;2022-10-31T11:37:42;0.63;;;0.63;;
45318;SDS011;31057;48.498;32.260;2022-10-31T11:39:46;3.58;;;1.10;;
45318;SDS011;31057;48.498;32.260;2022-10-31T11:41:59;2.67;;;1.20;;
45318;SDS011;31057;48.498;32.260;2022-10-31T11:44:12;3.13;;;1.98;;
45318;SDS011;31057;48.498;32.260;2022-10-31T11:48:53;2.90;;;1.63;;
45318;SDS011;31057;48.498;32.260;2022-10-31T11:50:57;2.22;;;1.10;;
45318;SDS011;31057;48.498;32.260;2022-10-31T11:52:59;3.65;;;1.10;;
45318;SDS011;31057;48.498;32.260;2022-10-31T11:57:26;1.70;;;1.13;;
45318;SDS011;31057;48.498;32.260;2022-10-31T11:59:30;2.70;;;1.10;;
45318;SDS011;31057;48.498;32.260;2022-10-31T12:01:32;2.03;;;1.05;;
45318;SDS011;31057;48.498;32.260;2022-10-31T12:03:42;4.72;;;0.90;;
45318;SDS011;31057;48.498;32.260;2022-10-31T12:08:23;3.60;;;1.08;;
45318;SDS011;31057;48.498;32.260;2022-10-31T12:10:34;2.60;;;1.10;;
45318;SDS011;31057;48.498;32.260;2022-10-31T12:31:33;5.47;;;1.30;;
45318;SDS011;31057;48.498;32.260;2022-10-31T12:38:06;4.95;;;1.05;;
45318;SDS011;31057;48.498;32.260;2022-10-31T12:42:37;2.60;;;1.48;;
45318;SDS011;31057;48.498;32.260;2022-10-31T13:00:48;6.32;;;1.80;;
45318;SDS011;31057;48.498;32.260;2022-10-31T13:03:21;3.88;;;1.65;;
45318;SDS011;31057;48.498;32.260;2022-10-31T13:05:39;5.22;;;3.80;;
45318;SDS011;31057;48.498;32.260;2022-10-31T13:10:22;2.47;;;1.52;;
45318;SDS011;31057;48.498;32.260;2022-10-31T13:12:26;5.43;;;1.50;;
45318;SDS011;31057;48.498;32.260;2022-10-31T13:16:43;4.72;;;2.53;;
45318;SDS011;31057;48.498;32.260;2022-10-31T13:18:50;4.25;;;2.72;;
45318;SDS011;31057;48.498;32.260;2022-10-31T13:20:53;2.67;;;1.85;;
45318;SDS011;31057;48.498;32.260;2022-10-31T13:23:26;4.05;;;2.03;;
45318;SDS011;31057;48.498;32.260;2022-10-31T13:25:52;5.13;;;1.88;;
45318;SDS011;31057;48.498;32.260;2022-10-31T13:28:05;5.18;;;2.10;;
45318;SDS011;31057;48.498;32.260;2022-10-31T13:30:22;4.38;;;2.22;;
45318;SDS011;31057;48.498;32.260;2022-10-31T13:32:26;4.18;;;2.42;;
45318;SDS011;31057;48.498;32.260;2022-10-31T13:34:56;3.60;;;1.98;;
45318;SDS011;31057;48.498;32.260;2022-10-31T13:37:05;4.28;;;2.38;;
45318;SDS011;31057;48.498;32.260;2022-10-31T13:44:39;4.97;;;2.00;;
45318;SDS011;31057;48.498;32.260;2022-10-31T13:46:42;4.28;;;2.13;;
45318;SDS011;31057;48.498;32.260;2022-10-31T13:48:44;5.53;;;2.80;;
45318;SDS011;31057;48.498;32.260;2022-10-31T13:50:56;6.28;;;2.80;;
45318;SDS011;31057;48.498;32.260;2022-10-31T13:53:13;5.18;;;2.72;;
45318;SDS011;31057;48.498;32.260;2022-10-31T13:55:34;5.05;;;2.30;;
45318;SDS011;31057;48.498;32.260;2022-10-31T13:57:46;6.78;;;3.17;;
45318;SDS011;31057;48.498;32.260;2022-10-31T13:59:49;4.60;;;2.40;;
45318;SDS011;31057;48.498;32.260;2022-10-31T14:01:56;3.83;;;2.50;;
45318;SDS011;31057;48.498;32.260;2022-10-31T14:06:15;9.23;;;2.92;;
45318;SDS011;31057;48.498;32.260;2022-10-31T14:08:18;8.38;;;3.22;;
45318;SDS011;31057;48.498;32.260;2022-10-31T14:12:29;6.95;;;3.15;;
45318;SDS011;31057;48.498;32.260;2022-10-31T14:14:39;4.07;;;2.70;;
45318;SDS011;31057;48.498;32.260;2022-10-31T14:16:52;6.63;;;3.20;;
45318;SDS011;31057;48.498;32.260;2022-10-31T14:19:07;5.03;;;2.78;;
45318;SDS011;31057;48.498;32.260;2022-10-31T14:25:34;5.72;;;3.22;;
45318;SDS011;31057;48.498;32.260;2022-10-31T14:27:44;4.30;;;3.20;;
45318;SDS011;31057;48.498;32.260;2022-10-31T14:29:47;13.00;;;3.60;;
45318;SDS011;31057;48.498;32.260;2022-10-31T14:39:00;6.47;;;3.92;;
45318;SDS011;31057;48.498;32.260;2022-10-31T14:41:22;5.78;;;3.90;;
45318;SDS011;31057;48.498;32.260;2022-10-31T14:52:55;4.45;;;3.00;;
45318;SDS011;31057;48.498;32.260;2022-10-31T14:54:59;4.63;;;3.33;;
45318;SDS011;31057;48.498;32.260;2022-10-31T14:57:04;4.95;;;3.10;;
45318;SDS011;31057;48.498;32.260;2022-10-31T14:59:13;8.55;;;3.08;;
45318;SDS011;31057;48.498;32.260;2022-10-31T15:01:37;10.18;;;3.13;;
45318;SDS011;31057;48.498;32.260;2022-10-31T15:03:42;8.40;;;3.47;;
45318;SDS011;31057;48.498;32.260;2022-10-31T15:06:11;6.95;;;3.83;;
45318;SDS011;31057;48.498;32.260;2022-10-31T15:10:39;6.35;;;3.42;;
45318;SDS011;31057;48.498;32.260;2022-10-31T15:12:46;8.23;;;3.03;;